Time;durP1;ratioP1;P1;durP2;ratioP2;P2;SDS_P1;SDS_P2;PMS_P1;PMS_P2;Temp;Humidity;BMP_temperature;BMP_pressure;BME280_temperature;BME280_humidity;BME280_pressure;Samples;Min_cycle;Max_cycle;Signal;HPM_P1;HPM_P2
2022/08/29 00:00:50;;;;;;;15.48;10.43;;;;;;;24.16;74.46;100885.66;2093692;28;20079;-73
2022/08/29 00:02:13;;;;;;;17.63;10.98;;;;;;;24.17;74.65;100882.91;2094867;28;20139;-73
2022/08/29 00:03:36;;;;;;;18.15;10.90;;;;;;;24.19;74.31;100883.78;2103507;28;20071;-73
2022/08/29 00:04:58;;;;;;;14.60;10.23;;;;;;;24.21;74.39;100878.31;2097622;28;20045;-74
2022/08/29 00:06:21;;;;;;;15.93;9.98;;;;;;;24.21;74.42;100883.72;2094936;28;20086;-74
2022/08/29 00:07:43;;;;;;;15.48;9.52;;;;;;;24.21;74.10;100883.72;2089625;28;20037;-73
2022/08/29 00:09:05;;;;;;;14.93;10.82;;;;;;;24.20;73.99;100880.13;2091875;28;20083;-74
2022/08/29 00:10:30;;;;;;;19.02;10.20;;;;;;;24.21;73.89;100879.22;2103175;28;20500;-73
2022/08/29 00:11:52;;;;;;;19.88;9.88;;;;;;;24.16;74.00;100880.25;2097289;28;20548;-74
2022/08/29 00:13:16;;;;;;;15.68;9.65;;;;;;;24.13;73.86;100875.00;2094690;28;20102;-74
2022/08/29 00:14:37;;;;;;;20.67;10.63;;;;;;;24.10;73.88;100867.88;2086962;28;20045;-73
2022/08/29 00:16:00;;;;;;;18.38;9.43;;;;;;;24.09;73.95;100868.81;2084359;28;20479;-73
2022/08/29 00:17:21;;;;;;;19.40;10.60;;;;;;;24.09;74.23;100866.13;2094843;28;20048;-74
2022/08/29 00:18:46;;;;;;;19.20;11.52;;;;;;;24.09;74.26;100868.81;2086352;28;20055;-74
2022/08/29 00:20:09;;;;;;;19.42;10.38;;;;;;;24.10;74.38;100864.31;2101523;28;20190;-74
2022/08/29 00:21:32;;;;;;;22.20;11.15;;;;;;;24.09;74.49;100876.91;2097452;28;20053;-74
2022/08/29 00:22:54;;;;;;;18.77;10.27;;;;;;;24.08;74.38;100869.78;2097665;28;20150;-74
2022/08/29 00:24:17;;;;;;;18.35;10.32;;;;;;;24.07;74.35;100873.41;2094744;28;20044;-74
2022/08/29 00:25:40;;;;;;;16.60;9.55;;;;;;;24.07;74.62;100869.84;2098685;28;20055;-73
2022/08/29 00:27:01;;;;;;;18.75;9.82;;;;;;;24.07;74.59;100872.53;2103432;28;20079;-74
2022/08/29 00:28:24;;;;;;;16.75;9.93;;;;;;;24.09;74.59;100871.53;2086439;28;20135;-74
2022/08/29 00:29:46;;;;;;;14.55;10.00;;;;;;;24.09;74.66;100871.53;2092357;28;20083;-74
2022/08/29 00:31:08;;;;;;;15.52;10.32;;;;;;;24.09;74.70;100863.44;2086155;28;20040;-74
2022/08/29 00:32:33;;;;;;;14.98;9.77;;;;;;;24.09;74.50;100867.97;2092559;28;20070;-74
2022/08/29 00:33:58;;;;;;;19.95;10.23;;;;;;;24.07;74.72;100867.16;2094975;28;20048;-73
2022/08/29 00:35:25;;;;;;;16.00;10.82;;;;;;;24.08;74.89;100869.78;2095167;28;20044;-74
2022/08/29 00:36:48;;;;;;;18.20;10.00;;;;;;;24.10;75.12;100864.31;2087330;28;20049;-74
2022/08/29 00:38:13;;;;;;;20.48;9.75;;;;;;;24.10;74.95;100862.50;2083755;28;20036;-74
2022/08/29 00:39:36;;;;;;;16.88;8.90;;;;;;;24.11;75.00;100866.06;2097362;28;20063;-74
2022/08/29 00:40:57;;;;;;;20.45;9.88;;;;;;;24.15;75.15;100862.34;2103303;28;20105;-74
2022/08/29 00:42:20;;;;;;;19.58;10.18;;;;;;;24.14;75.29;100858.75;2103123;28;20072;-74
2022/08/29 00:43:43;;;;;;;15.80;9.23;;;;;;;24.15;75.32;100862.34;2094332;28;20094;-74
2022/08/29 00:45:09;;;;;;;17.80;10.15;;;;;;;24.19;75.36;100856.78;2100394;28;20048;-74
2022/08/29 00:46:51;;;;;;;19.27;9.00;;;;;;;24.26;75.33;100860.13;2103362;28;20139;-74
2022/08/29 00:48:16;;;;;;;17.55;10.23;;;;;;;24.29;75.32;100864.50;2105466;28;20055;-73
2022/08/29 00:49:43;;;;;;;23.05;11.43;;;;;;;24.30;75.10;100864.44;2103506;28;20055;-74
2022/08/29 00:51:13;;;;;;;15.35;9.57;;;;;;;24.29;75.02;100862.69;2103447;28;20110;-74
2022/08/29 00:52:38;;;;;;;18.17;9.55;;;;;;;24.30;75.47;100867.16;2105693;28;20039;-73
2022/08/29 00:54:05;;;;;;;15.13;9.50;;;;;;;24.38;75.71;100870.44;2103450;28;20134;-74
2022/08/29 00:55:33;;;;;;;17.38;9.25;;;;;;;24.46;75.51;100872.84;2096965;28;20127;-73
2022/08/29 00:56:57;;;;;;;17.40;9.23;;;;;;;24.49;75.22;100878.09;2087020;28;20061;-74
2022/08/29 00:58:25;;;;;;;16.52;9.18;;;;;;;24.50;75.32;100872.63;2086751;28;20135;-74
2022/08/29 00:59:51;;;;;;;18.40;8.75;;;;;;;24.51;75.14;100877.09;2095030;28;20045;-74
2022/08/29 01:01:12;;;;;;;15.77;8.95;;;;;;;24.50;75.24;100878.03;2103010;28;20044;-74
2022/08/29 01:02:35;;;;;;;16.58;9.05;;;;;;;24.49;75.03;100873.56;2094825;28;20032;-74
2022/08/29 01:03:57;;;;;;;17.70;9.00;;;;;;;24.49;75.32;100873.56;2092298;28;20136;-73
2022/08/29 01:05:21;;;;;;;18.45;8.38;;;;;;;24.50;75.28;100875.34;2086400;28;20148;-74
2022/08/29 01:06:44;;;;;;;16.65;8.93;;;;;;;24.52;75.14;100867.19;2100828;28;20083;-73
2022/08/29 01:08:07;;;;;;;15.80;7.55;;;;;;;24.56;75.35;100868.81;2102669;28;20055;-74
2022/08/29 01:09:31;;;;;;;17.42;8.30;;;;;;;24.59;75.21;100874.09;2102762;28;20159;-74
2022/08/29 01:12:34;;;;;;;18.20;8.98;;;;;;;24.63;74.69;100867.63;2104778;28;20143;-74
2022/08/29 01:13:58;;;;;;;16.40;8.32;;;;;;;24.61;74.46;100870.38;2102803;28;20496;-73
2022/08/29 01:15:21;;;;;;;16.38;9.25;;;;;;;24.57;74.70;100874.16;2097684;28;20040;-74
2022/08/29 01:16:43;;;;;;;20.20;9.85;;;;;;;24.54;74.75;100876.13;2089078;28;20049;-74
2022/08/29 01:18:07;;;;;;;17.20;8.98;;;;;;;24.51;74.88;100881.63;2091678;28;20040;-74
2022/08/29 01:19:38;;;;;;;17.55;8.80;;;;;;;24.52;74.94;100872.59;2085987;28;20115;-74
2022/08/29 01:21:12;;;;;;;22.55;8.57;;;;;;;24.53;74.83;100875.22;2094328;28;20190;-74
2022/08/29 01:22:49;;;;;;;19.17;9.55;;;;;;;24.52;74.68;100873.47;2087485;28;20072;-74
2022/08/29 01:24:25;;;;;;;21.02;9.95;;;;;;;24.50;74.55;100875.34;2096388;28;20040;-73
2022/08/29 01:25:51;;;;;;;18.55;9.55;;;;;;;24.49;74.54;100873.56;2096125;28;20048;-73
2022/08/29 01:27:13;;;;;;;16.80;9.68;;;;;;;24.49;74.64;100873.56;2094612;28;20139;-74
2022/08/29 01:28:40;;;;;;;14.77;8.82;;;;;;;24.51;74.53;100871.69;2086329;28;20049;-73
2022/08/29 01:30:01;;;;;;;14.95;8.88;;;;;;;24.52;74.53;100877.97;2092945;28;20067;-74
2022/08/29 01:31:26;;;;;;;16.35;9.50;;;;;;;24.52;74.19;100865.38;2085916;28;20087;-74
2022/08/29 01:32:48;;;;;;;19.13;9.95;;;;;;;24.51;74.15;100874.41;2092643;28;20076;-73
2022/08/29 01:34:11;;;;;;;23.42;9.60;;;;;;;24.49;74.21;100867.28;2085469;28;20059;-74
2022/08/29 01:35:32;;;;;;;17.33;8.80;;;;;;;24.43;74.20;100864.84;2086289;28;20075;-73
2022/08/29 01:36:57;;;;;;;13.05;8.75;;;;;;;24.38;74.18;100866.84;2091312;28;20080;-73
2022/08/29 01:38:26;;;;;;;17.00;9.00;;;;;;;24.35;74.53;100870.53;2094736;28;20052;-73
2022/08/29 01:39:50;;;;;;;17.55;9.18;;;;;;;24.36;74.50;100866.03;2095185;28;20136;-73
2022/08/29 01:41:11;;;;;;;14.68;8.63;;;;;;;24.35;74.46;100867.84;2085650;28;20543;-74
2022/08/29 01:42:35;;;;;;;15.68;8.65;;;;;;;24.35;74.00;100867.84;2083155;28;20037;-74
2022/08/29 01:43:56;;;;;;;15.88;8.50;;;;;;;24.30;74.24;100861.75;2091712;28;20463;-74
2022/08/29 01:45:19;;;;;;;16.17;9.55;;;;;;;24.28;74.42;100862.78;2086000;28;20102;-73
2022/08/29 01:46:41;;;;;;;15.85;9.15;;;;;;;24.27;74.30;100869.09;2083829;28;20144;-73
2022/08/29 01:48:03;;;;;;;14.57;9.88;;;;;;;24.26;74.19;100868.22;2091212;28;20048;-74
2022/08/29 01:49:26;;;;;;;;;;;;;;;24.23;74.25;100874.59;2094492;28;20048;-73
2022/08/29 01:50:48;;;;;;;;;;;;;;;24.18;74.39;100871.19;2094825;28;20026;-74
2022/08/29 01:52:11;;;;;;;18.40;9.35;;;;;;;24.18;74.63;100865.78;2088813;28;20426;-74
2022/08/29 01:53:33;;;;;;;14.10;8.82;;;;;;;24.18;74.32;100864.91;2091558;28;20055;-74
2022/08/29 01:54:57;;;;;;;15.30;8.77;;;;;;;24.18;74.26;100863.09;2094004;28;20139;-74
2022/08/29 01:56:22;;;;;;;18.65;10.00;;;;;;;24.17;74.34;100863.13;2096952;28;20076;-74
2022/08/29 01:57:45;;;;;;;16.95;8.75;;;;;;;24.16;74.29;100869.47;2098461;28;20131;-74
2022/08/29 01:59:09;;;;;;;17.75;9.43;;;;;;;24.08;74.61;100858.13;2096607;28;20374;-74
2022/08/29 02:00:32;;;;;;;13.52;8.48;;;;;;;23.95;74.79;100863.09;2090257;28;20037;-73
2022/08/29 02:01:59;;;;;;;18.00;8.88;;;;;;;23.88;75.08;100868.78;2093769;28;20079;-73
2022/08/29 02:03:22;;;;;;;15.25;8.32;;;;;;;23.86;75.35;100865.25;2094786;28;20092;-74
2022/08/29 02:04:46;;;;;;;14.07;8.48;;;;;;;23.81;75.38;100866.31;2094135;28;20443;-74
2022/08/29 02:06:09;;;;;;;15.35;9.07;;;;;;;23.78;75.40;100863.72;2094400;28;20127;-74
2022/08/29 02:07:30;;;;;;;16.05;9.32;;;;;;;23.79;75.47;100872.69;2085950;28;20084;-73
2022/08/29 02:08:53;;;;;;;23.77;10.23;;;;;;;23.81;75.58;100865.44;2090988;28;20037;-74
2022/08/29 02:10:18;;;;;;;18.50;9.65;;;;;;;23.88;75.61;100868.78;2094160;28;20115;-74
2022/08/29 02:11:39;;;;;;;18.02;9.13;;;;;;;23.90;75.39;100866.88;2102471;28;20146;-74
2022/08/29 02:13:02;;;;;;;16.13;9.40;;;;;;;23.92;75.13;100870.41;2105117;28;20052;-74
2022/08/29 02:14:24;;;;;;;14.98;9.15;;;;;;;23.93;75.02;100869.47;2096623;28;20128;-74
2022/08/29 02:15:46;;;;;;;14.57;9.18;;;;;;;23.92;74.84;100865.91;2093995;28;20049;-73
2022/08/29 02:17:08;;;;;;;16.25;9.10;;;;;;;23.91;74.71;100864.13;2085829;28;20136;-74
2022/08/29 02:18:32;;;;;;;13.35;8.82;;;;;;;23.88;74.86;100868.78;2087703;28;20596;-73
2022/08/29 02:19:54;;;;;;;17.33;9.48;;;;;;;23.84;74.96;100868.00;2100173;28;20225;-74
2022/08/29 02:21:18;;;;;;;13.80;8.93;;;;;;;23.83;75.05;100863.53;2093957;28;20044;-74
2022/08/29 02:22:41;;;;;;;14.57;9.20;;;;;;;23.83;75.11;100872.50;2100166;28;20040;-74
2022/08/29 02:24:04;;;;;;;17.58;9.40;;;;;;;23.85;75.17;100867.06;2093642;28;20131;-73
2022/08/29 02:25:46;;;;;;;18.17;9.63;;;;;;;23.80;74.85;100864.56;2100002;28;20489;-74
2022/08/29 02:27:09;;;;;;;17.63;9.65;;;;;;;23.77;75.09;100869.16;2096383;28;20404;-74
2022/08/29 02:28:31;;;;;;;19.13;9.02;;;;;;;23.77;75.48;100867.34;2099849;28;20487;-74
2022/08/29 02:29:54;;;;;;;15.68;8.27;;;;;;;23.78;75.33;100870.94;2102002;28;20044;-74
2022/08/29 02:31:15;;;;;;;17.48;9.38;;;;;;;23.75;75.58;100871.94;2101162;28;20052;-73
2022/08/29 02:32:38;;;;;;;16.55;9.23;;;;;;;23.71;75.52;100866.69;2093793;28;20044;-74
2022/08/29 02:34:00;;;;;;;16.00;9.20;;;;;;;23.64;75.78;100868.72;2093471;28;20144;-74
2022/08/29 02:35:23;;;;;;;15.52;9.90;;;;;;;23.65;75.92;100875.00;2093837;28;20045;-73
2022/08/29 02:36:44;;;;;;;14.48;9.43;;;;;;;23.67;76.10;100870.44;2093852;28;20127;-73
2022/08/29 02:38:07;;;;;;;15.48;9.30;;;;;;;23.67;75.99;100875.84;2085680;28;20060;-73
2022/08/29 02:39:29;;;;;;;19.95;9.00;;;;;;;23.66;75.87;100877.66;2091431;28;20048;-73
2022/08/29 02:40:53;;;;;;;17.52;9.30;;;;;;;23.73;76.32;100872.91;2094097;28;20037;-73
2022/08/29 02:42:15;;;;;;;15.77;9.85;;;;;;;23.76;76.32;100876.38;2093958;28;20053;-74
2022/08/29 02:43:37;;;;;;;19.20;9.70;;;;;;;23.80;76.62;100878.03;2093574;28;20045;-73
2022/08/29 02:45:00;;;;;;;19.33;9.90;;;;;;;23.82;76.45;100869.91;2093405;28;20951;-74
2022/08/29 02:46:23;;;;;;;21.15;9.40;;;;;;;23.84;76.34;100881.47;2098732;28;20063;-74
2022/08/29 02:47:44;;;;;;;18.98;10.40;;;;;;;23.85;76.36;100875.16;2103118;28;20043;-73
2022/08/29 02:49:06;;;;;;;16.38;9.57;;;;;;;23.86;76.39;100882.31;2093439;28;20548;-74
2022/08/29 02:50:28;;;;;;;15.20;9.27;;;;;;;23.82;76.51;100878.88;2090522;28;20588;-73
2022/08/29 02:51:50;;;;;;;17.40;9.40;;;;;;;23.82;76.43;100876.19;2090945;28;20417;-74
2022/08/29 02:53:13;;;;;;;18.52;8.65;;;;;;;23.83;76.53;100879.72;2093901;28;20587;-73
2022/08/29 02:54:36;;;;;;;18.52;9.75;;;;;;;23.86;76.72;100879.63;2093787;28;20041;-74
2022/08/29 02:55:59;;;;;;;19.80;8.90;;;;;;;23.86;76.85;100884.13;2085536;28;20156;-74
2022/08/29 02:57:22;;;;;;;18.23;10.07;;;;;;;23.87;76.59;100877.81;2091408;28;20106;-74
2022/08/29 02:58:43;;;;;;;18.25;9.98;;;;;;;23.88;76.65;100884.97;2093534;28;20041;-74
2022/08/29 03:00:09;;;;;;;18.10;9.43;;;;;;;23.92;76.80;100887.47;2093265;28;20057;-74
2022/08/29 03:01:32;;;;;;;19.02;9.95;;;;;;;23.95;76.58;100881.09;2102550;28;20130;-74
2022/08/29 03:02:56;;;;;;;15.50;8.95;;;;;;;23.91;76.80;100879.44;2096251;28;20253;-74
2022/08/29 03:04:19;;;;;;;16.48;9.20;;;;;;;23.89;76.75;100875.94;2094015;28;20768;-74
2022/08/29 03:05:41;;;;;;;20.85;8.98;;;;;;;23.90;76.97;100883.94;2093903;28;20505;-73
2022/08/29 03:07:04;;;;;;;21.52;10.13;;;;;;;23.93;76.93;100883.84;2085487;28;20053;-74
2022/08/29 03:08:26;;;;;;;15.45;9.30;;;;;;;23.93;76.79;100877.56;2091186;28;20049;-73
2022/08/29 03:09:48;;;;;;;16.15;9.90;;;;;;;23.90;76.88;100883.06;2093921;28;20045;-73
2022/08/29 03:11:13;;;;;;;18.73;9.52;;;;;;;23.87;76.88;100883.19;2085402;28;20513;-74
2022/08/29 03:12:34;;;;;;;21.30;9.70;;;;;;;23.84;77.06;100876.97;2091099;28;20068;-74
2022/08/29 03:13:57;;;;;;;15.65;9.32;;;;;;;23.83;77.36;100875.22;2089296;28;20052;-74
2022/08/29 03:15:19;;;;;;;19.30;9.05;;;;;;;23.88;77.33;100874.19;2093593;28;20045;-74
2022/08/29 03:16:41;;;;;;;;;;;;;;;23.87;77.54;100878.69;2088524;28;20056;-74
2022/08/29 03:18:03;;;;;;;16.63;8.95;;;;;;;23.90;77.67;100872.28;2091094;28;19959;-74
2022/08/29 03:19:26;;;;;;;14.68;9.40;;;;;;;23.96;77.52;100872.94;2093124;28;20040;-74
2022/08/29 03:20:47;;;;;;;20.00;10.35;;;;;;;24.01;77.50;100886.25;2102189;28;20032;-74
2022/08/29 03:22:10;;;;;;;13.90;8.88;;;;;;;23.95;77.11;100884.69;2096471;28;20456;-74
2022/08/29 03:23:33;;;;;;;16.80;9.00;;;;;;;23.85;77.47;100880.56;2092729;28;20139;-74
2022/08/29 03:24:54;;;;;;;20.15;9.23;;;;;;;23.87;77.49;100891.28;2077344;28;20045;-74
2022/08/29 03:26:19;;;;;;;15.13;9.32;;;;;;;23.90;77.90;100888.47;2088065;28;20048;-74
2022/08/29 03:27:41;;;;;;;16.48;9.68;;;;;;;23.91;77.69;100888.41;2099212;28;20730;-73
2022/08/29 03:29:04;;;;;;;18.05;9.43;;;;;;;23.92;77.58;100894.69;2085279;28;20041;-74
2022/08/29 03:30:27;;;;;;;18.25;9.68;;;;;;;23.93;77.67;100896.44;2083335;28;20123;-73
2022/08/29 03:31:50;;;;;;;16.25;9.40;;;;;;;23.96;77.81;100893.66;2082507;28;20034;-74
2022/08/29 03:33:12;;;;;;;17.73;8.77;;;;;;;23.99;77.72;100897.09;2085124;28;20044;-73
2022/08/29 03:34:34;;;;;;;19.50;9.88;;;;;;;24.01;77.83;100891.66;2091293;28;20048;-74
2022/08/29 03:35:56;;;;;;;19.50;9.35;;;;;;;24.04;78.10;100894.22;2094205;28;20558;-74
2022/08/29 03:37:19;;;;;;;16.25;8.50;;;;;;;24.07;78.09;100892.31;2095348;28;20048;-74
2022/08/29 03:38:42;;;;;;;16.33;8.57;;;;;;;24.11;78.08;100887.66;2096311;28;20740;-74
2022/08/29 03:40:06;;;;;;;19.08;8.82;;;;;;;24.15;78.16;100894.72;2111798;28;20488;-74
2022/08/29 03:41:30;;;;;;;14.65;8.20;;;;;;;24.16;78.10;100891.06;2089203;28;20061;-74
2022/08/29 03:42:52;;;;;;;18.27;7.75;;;;;;;24.17;78.14;100893.69;2092967;28;20135;-74
2022/08/29 03:44:15;;;;;;;22.45;8.88;;;;;;;24.20;77.98;100899.03;2095221;28;20052;-73
2022/08/29 03:45:37;;;;;;;16.15;7.82;;;;;;;24.23;78.09;100892.63;2095298;28;20135;-74
2022/08/29 03:47:00;;;;;;;12.95;8.15;;;;;;;24.27;78.32;100902.38;2086749;28;20566;-74
2022/08/29 03:48:22;;;;;;;18.52;7.88;;;;;;;24.30;78.41;100904.94;2092578;28;20468;-74
2022/08/29 03:49:44;;;;;;;18.27;9.73;;;;;;;24.33;78.22;100899.44;2095100;28;20094;-74
2022/08/29 03:51:06;;;;;;;16.80;8.32;;;;;;;24.34;78.24;100895.78;2086879;28;20140;-74
2022/08/29 03:52:28;;;;;;;18.10;9.77;;;;;;;24.36;78.27;100896.59;2087019;28;20471;-74
2022/08/29 03:53:51;;;;;;;13.07;8.52;;;;;;;24.35;78.13;100897.53;2086477;28;20158;-74
2022/08/29 03:55:13;;;;;;;13.57;8.30;;;;;;;24.37;78.09;100897.47;2092481;28;20470;-74
2022/08/29 03:56:37;;;;;;;;;;;;;;;24.34;78.08;100903.91;2095637;28;20033;-73
2022/08/29 03:57:58;;;;;;;15.52;8.18;;;;;;;24.33;77.95;100899.44;2087005;28;19952;-74
2022/08/29 03:59:21;;;;;;;16.23;8.65;;;;;;;24.33;77.97;100902.13;2083919;28;20063;-74
2022/08/29 04:00:45;;;;;;;14.40;8.25;;;;;;;24.36;78.02;100910.09;2098609;28;20052;-73
2022/08/29 04:02:08;;;;;;;15.98;8.73;;;;;;;24.41;78.28;100907.22;2087092;28;20103;-74
2022/08/29 04:03:31;;;;;;;16.00;8.25;;;;;;;24.43;77.92;100905.31;2100573;28;20273;-74
2022/08/29 04:05:07;;;;;;;15.27;7.90;;;;;;;24.43;78.07;100906.22;2094935;28;20143;-74
2022/08/29 04:06:32;;;;;;;14.68;7.63;;;;;;;24.46;77.99;100902.53;2104753;28;20113;-74
2022/08/29 04:07:55;;;;;;;14.95;7.88;;;;;;;24.49;77.96;100905.97;2102429;28;20059;-74
2022/08/29 04:09:18;;;;;;;19.73;10.10;;;;;;;24.52;78.14;100910.38;2097645;28;20056;-73
2022/08/29 04:10:41;;;;;;;17.58;8.48;;;;;;;24.55;78.16;100904.84;2095065;28;20051;-74
2022/08/29 04:12:04;;;;;;;11.00;7.50;;;;;;;24.60;78.12;100910.97;2086568;28;20480;-74
2022/08/29 04:13:27;;;;;;;15.77;8.13;;;;;;;24.60;77.83;100909.16;2100653;28;20093;-73
2022/08/29 04:14:48;;;;;;;14.55;8.27;;;;;;;24.61;77.49;100913.56;2097587;28;20040;-74
2022/08/29 04:16:12;;;;;;;21.65;8.13;;;;;;;24.60;77.74;100913.66;2094818;28;20146;-74
2022/08/29 04:17:34;;;;;;;21.33;9.13;;;;;;;24.60;77.95;100914.53;2086576;28;20148;-73
2022/08/29 04:18:57;;;;;;;19.88;8.25;;;;;;;24.65;77.92;100910.78;2092479;28;20135;-74
2022/08/29 04:20:19;;;;;;;15.00;8.30;;;;;;;24.69;77.78;100917.78;2094895;28;20052;-73
2022/08/29 04:21:41;;;;;;;14.60;7.70;;;;;;;24.71;77.67;100915.91;2095052;28;20504;-73
2022/08/29 04:23:05;;;;;;;17.42;8.73;;;;;;;24.74;77.69;100922.09;2094901;28;20106;-73
2022/08/29 04:24:28;;;;;;;16.20;7.80;;;;;;;24.75;77.89;100913.03;2095104;28;20106;-74
2022/08/29 04:25:52;;;;;;;14.60;8.20;;;;;;;24.80;77.83;100920.97;2086869;28;20520;-73
2022/08/29 04:27:16;;;;;;;16.58;8.50;;;;;;;24.84;77.77;100926.16;2092580;28;20045;-74
2022/08/29 04:28:38;;;;;;;14.52;8.23;;;;;;;24.87;77.53;100926.06;2086540;28;20589;-74
2022/08/29 04:30:01;;;;;;;15.90;7.80;;;;;;;24.90;77.46;100923.25;2092067;28;20109;-73
2022/08/29 04:31:23;;;;;;;15.50;9.20;;;;;;;24.93;77.69;100927.66;2094078;28;20044;-73
2022/08/29 04:32:47;;;;;;;15.90;8.43;;;;;;;24.95;77.38;100928.44;2086441;28;20064;-74
2022/08/29 04:34:10;;;;;;;15.63;8.23;;;;;;;24.93;76.94;100928.53;2091857;28;20048;-74
2022/08/29 04:35:34;;;;;;;14.52;8.60;;;;;;;24.88;77.16;100925.09;2095223;28;20102;-74
2022/08/29 04:36:56;;;;;;;12.55;8.43;;;;;;;24.91;77.48;100930.41;2094949;28;20102;-74
2022/08/29 04:38:18;;;;;;;;;;;;;;;24.93;77.49;100924.97;2094956;28;20048;-74
2022/08/29 04:39:40;;;;;;;15.48;8.00;;;;;;;24.98;77.39;100921.13;2094988;28;20138;-74
2022/08/29 04:41:05;;;;;;;;;;;;;;;25.05;77.33;100921.75;2095309;28;20048;-74
2022/08/29 04:42:30;;;;;;;17.10;8.77;;;;;;;25.17;77.64;100923.03;2086661;28;19921;-74
2022/08/29 04:43:51;;;;;;;17.25;9.07;;;;;;;25.31;77.39;100929.63;2096896;28;20047;-74
2022/08/29 04:45:16;;;;;;;13.45;7.30;;;;;;;25.50;77.72;100921.59;2094705;28;20151;-74
2022/08/29 04:46:39;;;;;;;14.85;7.50;;;;;;;25.69;77.53;100929.81;2092658;28;20400;-74
2022/08/29 04:48:03;;;;;;;15.25;6.97;;;;;;;25.87;77.32;100923.59;2102591;28;20092;-74
2022/08/29 04:49:24;;;;;;;11.73;6.32;;;;;;;26.00;76.64;100919.38;2103014;28;20182;-74
2022/08/29 04:50:55;;;;;;;14.55;7.40;;;;;;;26.16;76.19;100920.44;2102618;28;20044;-74
2022/08/29 04:52:18;;;;;;;14.55;7.22;;;;;;;26.34;75.91;100912.44;2104028;28;20070;-74
2022/08/29 04:53:41;;;;;;;15.77;7.38;;;;;;;26.49;75.13;100917.13;2103036;28;20146;-74
2022/08/29 04:55:04;;;;;;;14.57;7.07;;;;;;;26.64;74.79;100921.81;2099644;28;20279;-74
2022/08/29 04:56:26;;;;;;;11.23;6.07;;;;;;;26.79;74.51;100915.63;2098671;28;20573;-73
2022/08/29 04:57:52;;;;;;;13.75;5.82;;;;;;;26.96;74.35;100920.28;2085946;28;20079;-74
2022/08/29 04:59:14;;;;;;;14.40;6.57;;;;;;;27.14;74.16;100921.16;2092718;28;20089;-74
2022/08/29 05:00:37;;;;;;;14.18;6.97;;;;;;;27.31;73.61;100915.75;2096090;28;20094;-74
2022/08/29 05:02:00;;;;;;;15.65;7.20;;;;;;;27.50;73.36;100918.44;2097134;28;20045;-73
2022/08/29 05:03:24;;;;;;;14.68;6.78;;;;;;;27.67;73.08;100913.91;2096796;28;20467;-74
2022/08/29 05:04:51;;;;;;;13.82;7.10;;;;;;;27.87;73.20;100918.25;2094623;28;20044;-74
2022/08/29 05:06:14;;;;;;;15.93;6.53;;;;;;;28.08;72.63;100918.94;2086704;28;20069;-74
2022/08/29 05:07:37;;;;;;;12.68;5.45;;;;;;;28.24;71.96;100905.41;2093082;28;20068;-74
2022/08/29 05:08:59;;;;;;;10.88;5.85;;;;;;;28.37;71.04;100904.66;2094122;28;20163;-75
2022/08/29 05:10:22;;;;;;;10.15;5.68;;;;;;;28.50;70.18;100913.88;2097280;28;20071;-74
2022/08/29 05:11:43;;;;;;;34.22;7.25;;;;;;;28.63;69.45;100907.72;2096618;28;20130;-74
2022/08/29 05:13:08;;;;;;;13.30;6.50;;;;;;;28.80;68.71;100910.41;2094254;28;20045;-74
2022/08/29 05:14:29;;;;;;;11.02;6.28;;;;;;;28.95;68.27;100906.78;2094519;28;20262;-74
2022/08/29 05:15:52;;;;;;;10.65;6.63;;;;;;;29.12;67.98;100911.25;2085992;28;20053;-74
2022/08/29 05:17:14;;;;;;;10.23;5.57;;;;;;;29.28;67.53;100910.22;2091999;28;20063;-74
2022/08/29 05:18:37;;;;;;;11.43;5.30;;;;;;;29.44;66.22;100906.63;2085632;28;20049;-74
2022/08/29 05:20:03;;;;;;;10.90;5.10;;;;;;;29.55;65.12;100907.72;2091966;28;20041;-74
2022/08/29 05:21:30;;;;;;;11.88;5.53;;;;;;;29.67;64.89;100903.38;2094731;28;20075;-74
2022/08/29 05:22:53;;;;;;;13.23;5.50;;;;;;;29.79;63.55;100901.78;2086824;28;20041;-74
2022/08/29 05:24:15;;;;;;;9.75;5.65;;;;;;;29.84;62.37;100895.06;2099645;28;20055;-75
2022/08/29 05:25:37;;;;;;;12.35;5.28;;;;;;;29.93;61.82;100907.28;2096694;28;20041;-74
2022/08/29 05:26:59;;;;;;;12.98;5.90;;;;;;;30.04;60.99;100905.63;2094415;28;20394;-75
2022/08/29 05:28:23;;;;;;;11.48;5.30;;;;;;;30.15;60.60;100904.94;2094144;28;20134;-74
2022/08/29 05:29:47;;;;;;;10.23;4.60;;;;;;;30.28;60.56;100894.13;2097124;28;20488;-74
2022/08/29 05:31:10;;;;;;;11.15;5.22;;;;;;;30.44;60.29;100897.63;2094379;28;20040;-74
2022/08/29 05:32:33;;;;;;;11.88;5.60;;;;;;;30.66;59.80;100905.28;2094182;28;20051;-74
2022/08/29 05:33:54;;;;;;;11.70;5.53;;;;;;;30.83;58.97;100905.94;2093453;28;20143;-74
2022/08/29 05:35:17;;;;;;;10.32;6.13;;;;;;;30.99;58.31;100896.72;2105146;28;20044;-74
2022/08/29 05:36:40;;;;;;;11.90;5.63;;;;;;;31.17;57.66;100901.88;2098212;28;20040;-75
2022/08/29 05:38:03;;;;;;;11.77;5.22;;;;;;;31.33;57.05;100900.78;2086047;28;20117;-74
2022/08/29 05:39:25;;;;;;;7.88;5.35;;;;;;;31.49;56.77;100907.84;2085685;28;20041;-75
2022/08/29 05:40:47;;;;;;;10.20;4.53;;;;;;;31.60;56.27;100891.59;2092074;28;20041;-75
2022/08/29 05:42:11;;;;;;;11.82;6.00;;;;;;;31.73;55.80;100893.47;2094356;28;20078;-74
2022/08/29 05:43:35;;;;;;;9.13;5.82;;;;;;;31.87;55.31;100896.09;2094266;28;20428;-75
2022/08/29 05:44:58;;;;;;;10.82;5.35;;;;;;;31.98;54.79;100896.19;2096680;28;20128;-74
2022/08/29 05:46:20;;;;;;;10.38;5.38;;;;;;;32.08;54.44;100893.69;2096931;28;20108;-74
2022/08/29 05:47:42;;;;;;;8.93;4.90;;;;;;;32.16;53.66;100897.66;2096446;28;20060;-75
2022/08/29 05:49:05;;;;;;;10.30;5.18;;;;;;;32.29;53.47;100889.44;2094397;28;20504;-74
2022/08/29 05:50:28;;;;;;;8.25;4.80;;;;;;;32.40;53.12;100895.00;2094316;28;20425;-75
2022/08/29 05:51:53;;;;;;;16.52;6.03;;;;;;;32.50;52.68;100890.59;2093603;28;20041;-75
2022/08/29 05:53:17;;;;;;;11.25;5.47;;;;;;;32.59;52.39;100889.03;2094258;28;20131;-75
2022/08/29 05:54:42;;;;;;;13.10;5.32;;;;;;;32.66;52.14;100890.34;2094428;28;20064;-74
2022/08/29 05:56:03;;;;;;;11.82;5.55;;;;;;;32.70;52.04;100887.28;2094196;28;20756;-74
2022/08/29 05:57:26;;;;;;;10.20;5.03;;;;;;;32.74;51.70;100887.94;2085411;28;20111;-74
2022/08/29 05:58:50;;;;;;;11.77;5.25;;;;;;;32.84;51.59;100894.47;2081796;28;20072;-74
2022/08/29 06:00:12;;;;;;;10.38;5.47;;;;;;;32.92;51.45;100885.69;2093150;28;20048;-75
2022/08/29 06:01:34;;;;;;;12.15;5.00;;;;;;;32.98;51.01;100887.94;2097089;28;20463;-74
2022/08/29 06:02:57;;;;;;;12.65;4.78;;;;;;;33.03;50.36;100893.94;2093552;28;20053;-74
2022/08/29 06:04:18;;;;;;;10.52;4.78;;;;;;;33.08;50.01;100891.75;2099314;28;20075;-75
2022/08/29 06:05:41;;;;;;;13.00;6.25;;;;;;;33.17;49.77;100888.28;2102092;28;20051;-75
2022/08/29 06:07:05;;;;;;;15.05;5.18;;;;;;;33.27;49.33;100897.59;2110508;28;20079;-76
2022/08/29 06:08:28;;;;;;;9.95;4.85;;;;;;;33.35;48.80;100889.63;2104591;28;20052;-75
2022/08/29 06:09:51;;;;;;;11.45;5.05;;;;;;;33.41;48.65;100894.63;2101953;28;20036;-76
2022/08/29 06:11:15;;;;;;;10.20;5.15;;;;;;;33.48;48.14;100895.03;2093944;28;20079;-75
2022/08/29 06:12:36;;;;;;;11.25;5.30;;;;;;;33.52;48.04;100891.94;2097498;28;20139;-75
2022/08/29 06:14:02;;;;;;;10.73;5.20;;;;;;;33.61;47.69;100890.31;2094961;28;20144;-75
2022/08/29 06:15:27;;;;;;;14.23;5.68;;;;;;;33.63;47.19;100900.19;2093966;28;20649;-75
2022/08/29 06:16:49;;;;;;;10.45;5.00;;;;;;;33.69;46.93;100893.34;2093498;28;20083;-76
2022/08/29 06:18:11;;;;;;;9.52;5.18;;;;;;;33.75;46.66;100892.88;2102121;28;20143;-77
2022/08/29 06:19:34;;;;;;;12.55;4.97;;;;;;;33.84;46.63;100894.91;2096211;28;20527;-76
2022/08/29 06:20:57;;;;;;;10.68;4.72;;;;;;;33.92;45.93;100895.19;2095783;28;20064;-76
2022/08/29 06:22:21;;;;;;;10.57;4.60;;;;;;;33.98;45.79;100902.03;2099842;28;20048;-76
2022/08/29 06:23:44;;;;;;;14.68;4.60;;;;;;;33.97;45.50;100898.41;2084822;28;20044;-76
2022/08/29 06:25:08;;;;;;;10.07;5.03;;;;;;;34.01;45.52;100897.16;2099206;28;20052;-75
2022/08/29 06:26:31;;;;;;;10.85;4.75;;;;;;;34.13;45.39;100908.16;2101394;28;20070;-75